Time;durP1;ratioP1;P1;durP2;ratioP2;P2;SDS_P1;SDS_P2;PMS_P1;PMS_P2;Temp;Humidity;BMP_temperature;BMP_pressure;BME280_temperature;BME280_humidity;BME280_pressure;Samples;Min_cycle;Max_cycle;Signal;HPM_P1;HPM_P2
2021/05/07 00:02:12;;;;;;;42.37;29.50;;;;;;;;;;5095448;28;20456;-60
2021/05/07 00:04:38;;;;;;;42.07;29.33;;;;;;;;;;5095246;28;20457;-58
2021/05/07 00:07:05;;;;;;;44.30;29.17;;;;;;;;;;5095202;28;20453;-56
2021/05/07 00:09:31;;;;;;;42.40;29.83;;;;;;;;;;5094933;28;20481;-59
2021/05/07 00:11:58;;;;;;;50.40;32.53;;;;;;;;;;5094885;28;20986;-58
2021/05/07 00:14:25;;;;;;;48.07;30.83;;;;;;;;;;5095292;28;20470;-59
2021/05/07 00:16:54;;;;;;;45.43;28.30;;;;;;;;;;5094961;28;20461;-59
2021/05/07 00:19:20;;;;;;;42.60;27.93;;;;;;;;;;5094961;28;20931;-60
2021/05/07 00:21:47;;;;;;;42.17;27.00;;;;;;;;;;5094581;28;20966;-58
2021/05/07 00:24:13;;;;;;;40.73;25.87;;;;;;;;;;5095039;28;20476;-59
2021/05/07 00:26:40;;;;;;;44.70;27.83;;;;;;;;;;5094993;28;20813;-60
2021/05/07 00:29:06;;;;;;;45.47;27.10;;;;;;;;;;5094876;28;20478;-61
2021/05/07 00:31:33;;;;;;;47.60;27.50;;;;;;;;;;5094700;28;20452;-58
2021/05/07 00:34:00;;;;;;;48.47;27.63;;;;;;;;;;5094678;28;20818;-58
2021/05/07 00:36:26;;;;;;;48.33;29.40;;;;;;;;;;5094859;28;20449;-57
2021/05/07 00:38:53;;;;;;;40.93;26.83;;;;;;;;;;5095111;28;20442;-59
2021/05/07 00:41:19;;;;;;;53.80;28.67;;;;;;;;;;5094968;28;20448;-59
2021/05/07 00:43:46;;;;;;;60.43;30.73;;;;;;;;;;5094327;28;20860;-60
2021/05/07 00:46:13;;;;;;;60.13;32.07;;;;;;;;;;5093513;28;20453;-59
2021/05/07 00:48:41;;;;;;;66.60;33.47;;;;;;;;;;5094376;28;20482;-60
2021/05/07 00:51:07;;;;;;;62.70;33.77;;;;;;;;;;5094155;28;20460;-61
2021/05/07 00:53:34;;;;;;;69.67;33.80;;;;;;;;;;5094454;28;20464;-60
2021/05/07 00:56:00;;;;;;;67.57;35.47;;;;;;;;;;5094472;28;20444;-60
2021/05/07 00:58:27;;;;;;;58.97;32.37;;;;;;;;;;5094319;28;20452;-59
2021/05/07 01:00:54;;;;;;;62.33;32.00;;;;;;;;;;5094041;28;20800;-60
2021/05/07 01:03:21;;;;;;;66.00;31.80;;;;;;;;;;5094139;28;20466;-60
2021/05/07 01:05:48;;;;;;;56.90;30.57;;;;;;;;;;5093954;28;20453;-60
2021/05/07 01:08:15;;;;;;;57.00;31.33;;;;;;;;;;5094067;28;20489;-60
2021/05/07 01:10:42;;;;;;;56.63;31.40;;;;;;;;;;5093838;28;20489;-60
2021/05/07 01:13:08;;;;;;;56.93;30.70;;;;;;;;;;5094098;28;20470;-61
2021/05/07 01:15:35;;;;;;;50.33;28.57;;;;;;;;;;5093991;28;20446;-60
2021/05/07 01:18:01;;;;;;;55.47;29.00;;;;;;;;;;5093753;28;20476;-60
2021/05/07 01:20:30;;;;;;;52.43;31.23;;;;;;;;;;5093966;28;20456;-61
2021/05/07 01:22:57;;;;;;;52.37;30.37;;;;;;;;;;5093849;28;20472;-59
2021/05/07 01:25:25;;;;;;;54.20;31.23;;;;;;;;;;5093927;28;20449;-58
2021/05/07 01:27:57;;;;;;;55.27;30.20;;;;;;;;;;5093619;28;20442;-57
2021/05/07 01:30:24;;;;;;;47.20;29.27;;;;;;;;;;5093515;28;20438;-59
2021/05/07 01:32:52;;;;;;;44.63;28.17;;;;;;;;;;5093388;28;21001;-58
2021/05/07 01:35:19;;;;;;;45.40;29.40;;;;;;;;;;5093707;28;20826;-59
2021/05/07 01:37:48;;;;;;;42.30;25.47;;;;;;;;;;5093509;28;20445;-58
2021/05/07 01:40:18;;;;;;;39.20;25.77;;;;;;;;;;5093300;28;20935;-58
2021/05/07 01:42:46;;;;;;;44.43;28.50;;;;;;;;;;5094599;28;20485;-60
2021/05/07 01:45:14;;;;;;;48.57;30.03;;;;;;;;;;5094765;28;20447;-57
2021/05/07 01:47:41;;;;;;;54.10;29.37;;;;;;;;;;5093477;28;20451;-59
2021/05/07 01:50:08;;;;;;;54.03;31.37;;;;;;;;;;5094526;28;20575;-60
2021/05/07 01:52:35;;;;;;;49.73;30.33;;;;;;;;;;5095189;28;20468;-60
2021/05/07 01:55:03;;;;;;;46.70;29.57;;;;;;;;;;5094446;28;20446;-56
2021/05/07 01:57:30;;;;;;;47.17;28.80;;;;;;;;;;5092999;28;20450;-59
2021/05/07 01:59:56;;;;;;;48.23;27.73;;;;;;;;;;5092688;28;20910;-58
2021/05/07 02:02:23;;;;;;;47.67;28.33;;;;;;;;;;5093434;28;20840;-58
2021/05/07 02:04:49;;;;;;;50.13;30.53;;;;;;;;;;5093011;28;20461;-60
2021/05/07 02:07:16;;;;;;;51.33;30.43;;;;;;;;;;5093018;28;20449;-59
2021/05/07 02:09:42;;;;;;;53.10;31.27;;;;;;;;;;5092648;28;20480;-59
2021/05/07 02:12:10;;;;;;;48.73;29.53;;;;;;;;;;5092831;28;20458;-60
2021/05/07 02:14:37;;;;;;;49.27;28.50;;;;;;;;;;5093247;28;20446;-60
2021/05/07 02:17:04;;;;;;;55.67;32.37;;;;;;;;;;5092997;28;20447;-60
2021/05/07 02:19:30;;;;;;;54.83;30.70;;;;;;;;;;5092886;28;20450;-60
2021/05/07 02:21:57;;;;;;;47.40;27.63;;;;;;;;;;5092533;28;20503;-60
2021/05/07 02:24:23;;;;;;;50.90;30.87;;;;;;;;;;5092779;28;20458;-58
2021/05/07 02:26:50;;;;;;;54.30;32.00;;;;;;;;;;5092402;28;20454;-59
2021/05/07 02:29:17;;;;;;;54.77;32.27;;;;;;;;;;5092670;28;20845;-59
2021/05/07 02:31:44;;;;;;;53.43;31.93;;;;;;;;;;5092440;28;20866;-59
2021/05/07 02:34:10;;;;;;;56.87;32.77;;;;;;;;;;5092608;28;20475;-58
2021/05/07 02:36:37;;;;;;;59.47;33.27;;;;;;;;;;5092408;28;20938;-60
2021/05/07 02:39:04;;;;;;;59.47;33.10;;;;;;;;;;5092440;28;20926;-59
2021/05/07 02:41:31;;;;;;;53.80;31.47;;;;;;;;;;5092127;28;20468;-60
2021/05/07 02:43:58;;;;;;;55.37;31.30;;;;;;;;;;5092193;28;20531;-60
2021/05/07 02:46:25;;;;;;;55.80;32.03;;;;;;;;;;5092489;28;20505;-57
2021/05/07 02:48:52;;;;;;;55.30;32.60;;;;;;;;;;5092282;28;20470;-57
2021/05/07 02:51:18;;;;;;;58.93;33.07;;;;;;;;;;5092136;28;20567;-58
2021/05/07 02:53:44;;;;;;;54.27;29.97;;;;;;;;;;5092169;28;20874;-57
2021/05/07 02:56:11;;;;;;;64.63;34.77;;;;;;;;;;5092079;28;20528;-57
2021/05/07 02:58:37;;;;;;;61.43;34.50;;;;;;;;;;5092350;28;20441;-60
2021/05/07 03:01:04;;;;;;;58.20;34.17;;;;;;;;;;5092052;28;21053;-60
2021/05/07 03:03:31;;;;;;;56.00;33.17;;;;;;;;;;5092088;28;20519;-59
2021/05/07 03:05:58;;;;;;;56.23;32.90;;;;;;;;;;5092444;28;20461;-58
2021/05/07 03:08:25;;;;;;;62.77;31.87;;;;;;;;;;5091183;28;20480;-60
2021/05/07 03:10:51;;;;;;;62.47;34.23;;;;;;;;;;5091859;28;21774;-59
2021/05/07 03:13:18;;;;;;;55.63;31.90;;;;;;;;;;5092103;28;20476;-57
2021/05/07 03:15:44;;;;;;;53.50;33.07;;;;;;;;;;5091987;28;20449;-60
2021/05/07 03:18:15;;;;;;;55.63;32.97;;;;;;;;;;5092208;28;20444;-60
2021/05/07 03:20:42;;;;;;;55.17;30.53;;;;;;;;;;5091663;28;20458;-60
2021/05/07 03:23:09;;;;;;;54.47;32.00;;;;;;;;;;5091750;28;20479;-58
2021/05/07 03:25:35;;;;;;;48.97;29.37;;;;;;;;;;5092050;28;20450;-60
2021/05/07 03:28:02;;;;;;;51.67;31.33;;;;;;;;;;5092157;28;20451;-58
2021/05/07 03:30:28;;;;;;;56.60;31.83;;;;;;;;;;5091574;28;20538;-60
2021/05/07 03:32:55;;;;;;;58.77;31.90;;;;;;;;;;5091786;28;20473;-59
2021/05/07 03:35:21;;;;;;;59.63;33.57;;;;;;;;;;5091724;28;20824;-60
2021/05/07 03:37:48;;;;;;;61.77;32.50;;;;;;;;;;5091912;28;20448;-60
2021/05/07 03:40:15;;;;;;;59.43;34.50;;;;;;;;;;5091790;28;20439;-58
2021/05/07 03:42:44;;;;;;;63.03;34.47;;;;;;;;;;5091836;28;20488;-60
2021/05/07 03:45:11;;;;;;;65.83;35.37;;;;;;;;;;5091874;28;20460;-60
2021/05/07 03:47:37;;;;;;;65.70;36.50;;;;;;;;;;5091829;28;20446;-60
2021/05/07 03:50:04;;;;;;;64.33;34.30;;;;;;;;;;5091311;28;20486;-60
2021/05/07 03:52:31;;;;;;;60.77;33.67;;;;;;;;;;5091564;28;20479;-60
2021/05/07 03:54:58;;;;;;;60.87;33.17;;;;;;;;;;5091779;28;20453;-60
2021/05/07 03:57:25;;;;;;;55.17;32.33;;;;;;;;;;5091527;28;20950;-59
2021/05/07 03:59:52;;;;;;;56.97;31.80;;;;;;;;;;5091389;28;20484;-60
2021/05/07 04:02:18;;;;;;;55.47;32.13;;;;;;;;;;5091290;28;20465;-60
2021/05/07 04:04:46;;;;;;;58.43;33.20;;;;;;;;;;5091376;28;20449;-58
2021/05/07 04:07:13;;;;;;;53.53;32.50;;;;;;;;;;5091652;28;20460;-59
2021/05/07 04:09:43;;;;;;;61.47;34.17;;;;;;;;;;5091444;28;20493;-60
2021/05/07 04:12:14;;;;;;;62.17;35.53;;;;;;;;;;5091708;28;20843;-60
2021/05/07 04:14:41;;;;;;;66.67;34.70;;;;;;;;;;5091397;28;20461;-59
2021/05/07 04:17:07;;;;;;;65.43;36.27;;;;;;;;;;5069051;28;20951;-60
2021/05/07 04:19:34;;;;;;;69.53;36.40;;;;;;;;;;5085968;28;20501;-60
2021/05/07 04:22:00;;;;;;;73.17;36.93;;;;;;;;;;5094512;28;20438;-60
2021/05/07 04:24:27;;;;;;;71.57;36.47;;;;;;;;;;5094741;28;20952;-61
2021/05/07 04:26:54;;;;;;;76.40;37.20;;;;;;;;;;5094933;28;20448;-61
2021/05/07 04:29:22;;;;;;;76.67;40.30;;;;;;;;;;5094538;28;20550;-61
2021/05/07 04:31:48;;;;;;;84.20;39.67;;;;;;;;;;5094563;28;20444;-60
2021/05/07 04:34:15;;;;;;;95.50;41.20;;;;;;;;;;5094697;28;20986;-61
2021/05/07 04:36:42;;;;;;;101.97;44.67;;;;;;;;;;5094816;28;21001;-59
2021/05/07 04:39:08;;;;;;;95.80;44.17;;;;;;;;;;5094747;28;20863;-60
2021/05/07 04:41:35;;;;;;;97.47;45.63;;;;;;;;;;5094428;28;20475;-59
2021/05/07 04:44:01;;;;;;;105.90;47.67;;;;;;;;;;5094274;28;20484;-59
2021/05/07 04:46:29;;;;;;;98.47;46.27;;;;;;;;;;5094178;28;20460;-60
2021/05/07 04:48:55;;;;;;;117.33;50.00;;;;;;;;;;5094580;28;20492;-60
2021/05/07 04:51:22;;;;;;;100.13;46.87;;;;;;;;;;5094358;28;20447;-58
2021/05/07 04:53:48;;;;;;;100.07;47.67;;;;;;;;;;5094388;28;20559;-59
2021/05/07 04:56:15;;;;;;;108.10;48.27;;;;;;;;;;5094427;28;20449;-59
2021/05/07 04:58:41;;;;;;;111.30;49.37;;;;;;;;;;5094248;28;20446;-59
2021/05/07 05:01:08;;;;;;;118.70;53.00;;;;;;;;;;5094022;28;20464;-57
2021/05/07 05:03:35;;;;;;;114.43;51.63;;;;;;;;;;5094200;28;20513;-59
2021/05/07 05:06:01;;;;;;;123.73;51.47;;;;;;;;;;5094067;28;20958;-58
2021/05/07 05:08:28;;;;;;;117.87;49.77;;;;;;;;;;5094027;28;20446;-59
2021/05/07 05:10:55;;;;;;;106.17;50.27;;;;;;;;;;5093960;28;20457;-58
2021/05/07 05:13:22;;;;;;;103.57;49.53;;;;;;;;;;5093718;28;20469;-60
2021/05/07 05:15:49;;;;;;;93.80;47.00;;;;;;;;;;5094385;28;20450;-59
2021/05/07 05:18:24;;;;;;;97.37;46.37;;;;;;;;;;5094025;28;20449;-60
2021/05/07 05:20:52;;;;;;;100.77;47.67;;;;;;;;;;5093695;28;20449;-60
2021/05/07 05:23:18;;;;;;;89.10;45.43;;;;;;;;;;5093971;28;20531;-58
2021/05/07 05:25:45;;;;;;;91.43;44.87;;;;;;;;;;5093758;28;20828;-60
2021/05/07 05:28:11;;;;;;;83.47;45.00;;;;;;;;;;5093492;28;20453;-59
2021/05/07 05:30:38;;;;;;;83.50;44.23;;;;;;;;;;5093231;28;20858;-57
2021/05/07 05:33:05;;;;;;;72.70;39.37;;;;;;;;;;5093476;28;20462;-58
2021/05/07 05:35:31;;;;;;;73.27;39.17;;;;;;;;;;5093711;28;20453;-59
2021/05/07 05:37:59;;;;;;;71.03;38.73;;;;;;;;;;5093853;28;20464;-56
2021/05/07 05:40:25;;;;;;;65.53;36.47;;;;;;;;;;5093107;28;20446;-59
2021/05/07 05:42:52;;;;;;;67.10;38.73;;;;;;;;;;5093588;28;20894;-59
2021/05/07 05:45:18;;;;;;;62.67;35.50;;;;;;;;;;5093823;28;20451;-59
2021/05/07 05:47:45;;;;;;;64.20;36.00;;;;;;;;;;5094166;28;20488;-59
2021/05/07 05:50:12;;;;;;;62.37;37.63;;;;;;;;;;5093217;28;20485;-59
2021/05/07 05:52:38;;;;;;;71.23;38.87;;;;;;;;;;5093235;28;20527;-58
2021/05/07 05:55:07;;;;;;;64.90;38.70;;;;;;;;;;5092984;28;20956;-59
2021/05/07 05:57:34;;;;;;;63.23;38.03;;;;;;;;;;5093238;28;20884;-59
2021/05/07 06:00:00;;;;;;;52.40;33.63;;;;;;;;;;5092888;28;20505;-57
2021/05/07 06:02:27;;;;;;;55.40;34.97;;;;;;;;;;5092907;28;20983;-59
2021/05/07 06:04:53;;;;;;;54.57;34.80;;;;;;;;;;5093032;28;20454;-57
2021/05/07 06:07:19;;;;;;;51.67;32.77;;;;;;;;;;5092976;28;20453;-59
2021/05/07 06:09:46;;;;;;;53.80;32.53;;;;;;;;;;5092369;28;20488;-59
2021/05/07 06:12:13;;;;;;;53.63;32.43;;;;;;;;;;5092708;28;20992;-57
2021/05/07 06:14:40;;;;;;;49.67;32.50;;;;;;;;;;5092993;28;20447;-58
2021/05/07 06:17:07;;;;;;;51.67;33.77;;;;;;;;;;5092924;28;20798;-59
2021/05/07 06:19:33;;;;;;;50.70;30.83;;;;;;;;;;5092845;28;20445;-59
2021/05/07 06:22:00;;;;;;;55.00;34.03;;;;;;;;;;5092548;28;20518;-58
2021/05/07 06:24:26;;;;;;;54.97;33.63;;;;;;;;;;5092886;28;21003;-59
2021/05/07 06:26:53;;;;;;;57.90;34.03;;;;;;;;;;5092817;28;20511;-57
2021/05/07 06:29:20;;;;;;;57.60;35.97;;;;;;;;;;5092409;28;21051;-60
2021/05/07 06:31:46;;;;;;;57.90;34.83;;;;;;;;;;5092316;28;20442;-59
2021/05/07 06:34:13;;;;;;;52.07;32.33;;;;;;;;;;5092335;28;20477;-59
2021/05/07 06:36:39;;;;;;;52.40;33.77;;;;;;;;;;5092508;28;20450;-59
2021/05/07 06:39:06;;;;;;;42.77;25.87;;;;;;;;;;5092329;28;20439;-58
2021/05/07 06:41:33;;;;;;;33.00;20.77;;;;;;;;;;5092278;28;20458;-59
2021/05/07 06:43:59;;;;;;;33.03;21.57;;;;;;;;;;5091335;28;20484;-59
2021/05/07 06:46:26;;;;;;;42.53;27.30;;;;;;;;;;5092257;28;21064;-60
2021/05/07 06:48:53;;;;;;;44.37;26.67;;;;;;;;;;5092603;28;20482;-59
2021/05/07 06:51:19;;;;;;;23.13;15.90;;;;;;;;;;5092150;28;20446;-59
2021/05/07 06:53:46;;;;;;;17.53;11.40;;;;;;;;;;5092495;28;21743;-60
2021/05/07 06:56:12;;;;;;;10.97;7.83;;;;;;;;;;5092533;28;20457;-59
2021/05/07 06:58:40;;;;;;;12.10;7.70;;;;;;;;;;5091964;28;20939;-59
2021/05/07 07:01:06;;;;;;;10.70;7.67;;;;;;;;;;5091874;28;20454;-57
2021/05/07 07:03:34;;;;;;;12.73;6.97;;;;;;;;;;5092080;28;20835;-58
2021/05/07 07:06:00;;;;;;;8.97;7.03;;;;;;;;;;5091890;28;20456;-59
2021/05/07 07:08:26;;;;;;;10.70;7.07;;;;;;;;;;5091951;28;21056;-56
2021/05/07 07:10:53;;;;;;;9.57;6.37;;;;;;;;;;5091769;28;20480;-59
2021/05/07 07:13:19;;;;;;;12.70;8.00;;;;;;;;;;5091940;28;20466;-55
2021/05/07 07:15:46;;;;;;;9.77;7.30;;;;;;;;;;5091941;28;20935;-57
2021/05/07 07:18:13;;;;;;;10.40;6.00;;;;;;;;;;5092180;28;20453;-59
2021/05/07 07:20:40;;;;;;;10.43;6.77;;;;;;;;;;5091342;28;20441;-60
2021/05/07 07:23:06;;;;;;;13.30;7.90;;;;;;;;;;5091960;28;20473;-54
2021/05/07 07:25:33;;;;;;;11.60;7.67;;;;;;;;;;5091879;28;20452;-58
2021/05/07 07:27:59;;;;;;;12.90;8.50;;;;;;;;;;5091861;28;20458;-58
2021/05/07 07:30:26;;;;;;;13.90;8.93;;;;;;;;;;5091371;28;20478;-58
2021/05/07 07:32:52;;;;;;;10.77;8.20;;;;;;;;;;5091911;28;20474;-58
2021/05/07 07:35:19;;;;;;;12.10;8.03;;;;;;;;;;5091526;28;20457;-59
2021/05/07 07:37:46;;;;;;;11.37;8.10;;;;;;;;;;5091960;28;20451;-59
2021/05/07 07:40:13;;;;;;;12.50;8.27;;;;;;;;;;5091464;28;20446;-60
2021/05/07 07:42:40;;;;;;;14.63;10.83;;;;;;;;;;5091500;28;20511;-58
2021/05/07 07:45:07;;;;;;;17.83;13.80;;;;;;;;;;5091976;28;20454;-57
2021/05/07 07:47:34;;;;;;;20.73;13.90;;;;;;;;;;5091616;28;20449;-59
2021/05/07 07:50:00;;;;;;;23.33;14.57;;;;;;;;;;5091351;28;20488;-59
2021/05/07 07:52:27;;;;;;;21.77;11.93;;;;;;;;;;5091807;28;20472;-59
2021/05/07 07:54:54;;;;;;;19.47;11.37;;;;;;;;;;5093459;28;20497;-57
2021/05/07 07:57:21;;;;;;;11.53;8.87;;;;;;;;;;5095628;28;20455;-59
2021/05/07 07:59:47;;;;;;;9.67;6.93;;;;;;;;;;5095119;28;20448;-59
2021/05/07 08:02:14;;;;;;;7.23;6.13;;;;;;;;;;5095385;28;20448;-59
2021/05/07 08:04:40;;;;;;;6.73;4.90;;;;;;;;;;5095594;28;20446;-58
2021/05/07 08:07:07;;;;;;;7.87;5.77;;;;;;;;;;5095405;28;20470;-60
2021/05/07 08:09:33;;;;;;;7.37;5.90;;;;;;;;;;5095411;28;21015;-59
2021/05/07 08:12:01;;;;;;;8.10;5.10;;;;;;;;;;5094845;28;20449;-59
2021/05/07 08:14:27;;;;;;;8.10;6.03;;;;;;;;;;5095153;28;20829;-59
2021/05/07 08:16:54;;;;;;;8.23;5.50;;;;;;;;;;5094907;28;20461;-58
2021/05/07 08:19:20;;;;;;;7.93;6.03;;;;;;;;;;5095339;28;20461;-58
2021/05/07 08:21:47;;;;;;;7.37;4.90;;;;;;;;;;5094815;28;20449;-59
2021/05/07 08:24:13;;;;;;;6.50;5.60;;;;;;;;;;5095228;28;20989;-59
2021/05/07 08:26:40;;;;;;;6.27;5.47;;;;;;;;;;5094871;28;20442;-59
2021/05/07 08:29:07;;;;;;;8.60;6.80;;;;;;;;;;5094850;28;20500;-59
2021/05/07 08:31:33;;;;;;;7.20;5.67;;;;;;;;;;5094608;28;20450;-59
2021/05/07 08:34:00;;;;;;;7.90;7.10;;;;;;;;;;5095014;28;20478;-59
2021/05/07 08:36:27;;;;;;;8.57;7.67;;;;;;;;;;5094522;28;20438;-60
2021/05/07 08:38:54;;;;;;;5.77;5.17;;;;;;;;;;5094708;28;20970;-60
2021/05/07 08:41:20;;;;;;;5.60;5.07;;;;;;;;;;5094472;28;20450;-58
2021/05/07 08:43:48;;;;;;;7.47;6.10;;;;;;;;;;5094198;28;20485;-58
2021/05/07 08:46:16;;;;;;;6.93;5.87;;;;;;;;;;5094644;28;20451;-61
2021/05/07 08:48:43;;;;;;;6.53;4.83;;;;;;;;;;5094491;28;20206;-58
2021/05/07 08:51:10;;;;;;;5.47;4.27;;;;;;;;;;5094404;28;20211;-58
2021/05/07 08:53:36;;;;;;;4.33;3.63;;;;;;;;;;5094062;28;20579;-57
2021/05/07 08:56:03;;;;;;;5.83;4.37;;;;;;;;;;5094287;28;20200;-58
2021/05/07 08:58:30;;;;;;;4.30;3.60;;;;;;;;;;5094095;28;20204;-61
2021/05/07 09:00:57;;;;;;;4.77;3.83;;;;;;;;;;5094116;28;20258;-60
2021/05/07 09:03:24;;;;;;;5.10;3.83;;;;;;;;;;5094479;28;20226;-60
2021/05/07 09:05:51;;;;;;;6.37;4.83;;;;;;;;;;5093500;28;20228;-58
2021/05/07 09:08:18;;;;;;;6.37;4.00;;;;;;;;;;5094209;28;20210;-59
2021/05/07 09:10:45;;;;;;;8.73;4.60;;;;;;;;;;5093765;28;20234;-58
2021/05/07 09:13:13;;;;;;;6.83;5.07;;;;;;;;;;5093757;28;21085;-59
2021/05/07 09:15:41;;;;;;;6.13;4.30;;;;;;;;;;5094156;28;20208;-58
2021/05/07 09:18:07;;;;;;;6.83;4.50;;;;;;;;;;5094115;28;20293;-58
2021/05/07 09:20:39;;;;;;;4.70;3.43;;;;;;;;;;5093512;28;20203;-58
2021/05/07 09:23:11;;;;;;;6.67;4.10;;;;;;;;;;5093755;28;20283;-59
2021/05/07 09:25:37;;;;;;;6.83;3.90;;;;;;;;;;5093677;28;20309;-58
2021/05/07 09:28:07;;;;;;;4.87;3.90;;;;;;;;;;5093916;28;20210;-60
2021/05/07 09:30:34;;;;;;;6.80;5.50;;;;;;;;;;5093532;28;20271;-60
2021/05/07 09:33:05;;;;;;;8.20;4.73;;;;;;;;;;5093996;28;20238;-60
2021/05/07 09:35:32;;;;;;;6.83;4.47;;;;;;;;;;5093473;28;20226;-59
2021/05/07 09:38:00;;;;;;;6.10;5.40;;;;;;;;;;5093372;28;20243;-59
2021/05/07 09:40:27;;;;;;;5.07;4.30;;;;;;;;;;5093750;28;20211;-60
2021/05/07 09:43:03;;;;;;;5.67;5.03;;;;;;;;;;5093751;28;20243;-60
2021/05/07 09:45:29;;;;;;;6.10;5.50;;;;;;;;;;5093582;28;20212;-60
2021/05/07 09:47:56;;;;;;;6.50;3.30;;;;;;;;;;5093367;28;20722;-58
2021/05/07 09:50:31;;;;;;;4.57;3.43;;;;;;;;;;5092841;28;20224;-59
2021/05/07 09:53:07;;;;;;;4.73;3.10;;;;;;;;;;5093540;28;20238;-59
2021/05/07 09:55:35;;;;;;;6.20;4.00;;;;;;;;;;5093374;28;20204;-60
2021/05/07 09:58:02;;;;;;;4.20;3.80;;;;;;;;;;5093460;28;20223;-60
2021/05/07 10:00:29;;;;;;;4.43;4.03;;;;;;;;;;5093067;28;20207;-55
2021/05/07 10:02:55;;;;;;;3.37;3.07;;;;;;;;;;5093505;28;20224;-57
2021/05/07 10:05:23;;;;;;;3.90;3.00;;;;;;;;;;5093002;28;20211;-58
2021/05/07 10:07:50;;;;;;;3.57;3.20;;;;;;;;;;5093289;28;20200;-59
2021/05/07 10:10:16;;;;;;;3.47;2.57;;;;;;;;;;5092655;28;20315;-59
2021/05/07 10:12:45;;;;;;;4.47;2.37;;;;;;;;;;5092745;28;20640;-58
2021/05/07 10:15:12;;;;;;;3.90;2.40;;;;;;;;;;5092840;28;20211;-59
2021/05/07 10:17:49;;;;;;;3.10;2.20;;;;;;;;;;5092593;28;20212;-59
2021/05/07 10:20:22;;;;;;;2.73;2.47;;;;;;;;;;5092575;28;20196;-59
2021/05/07 10:22:48;;;;;;;4.20;2.43;;;;;;;;;;5092694;28;20228;-59
2021/05/07 10:25:16;;;;;;;5.20;3.00;;;;;;;;;;5092740;28;20564;-59
2021/05/07 10:27:47;;;;;;;2.77;2.40;;;;;;;;;;5092679;28;20253;-58
2021/05/07 10:30:22;;;;;;;3.20;2.80;;;;;;;;;;5092229;28;20224;-59
2021/05/07 10:32:56;;;;;;;3.57;2.87;;;;;;;;;;5092643;28;20267;-59
2021/05/07 10:35:29;;;;;;;5.00;3.00;;;;;;;;;;5092968;28;20204;-59
2021/05/07 10:37:56;;;;;;;5.70;3.10;;;;;;;;;;5092817;28;20633;-59
2021/05/07 10:40:23;;;;;;;4.20;2.90;;;;;;;;;;5092030;28;20593;-59
2021/05/07 10:42:57;;;;;;;3.57;2.97;;;;;;;;;;5092149;28;20243;-55
2021/05/07 10:45:38;;;;;;;3.87;3.00;;;;;;;;;;5092607;28;20211;-58
2021/05/07 10:48:12;;;;;;;3.73;2.90;;;;;;;;;;5092343;28;20204;-58
2021/05/07 10:50:40;;;;;;;4.80;3.30;;;;;;;;;;5092005;28;20224;-59
2021/05/07 10:53:06;;;;;;;3.87;2.70;;;;;;;;;;5091962;28;20712;-57
2021/05/07 10:55:33;;;;;;;4.83;3.60;;;;;;;;;;5092219;28;20204;-59
2021/05/07 10:58:01;;;;;;;3.90;2.73;;;;;;;;;;5092226;28;20216;-59
2021/05/07 11:00:33;;;;;;;4.00;3.57;;;;;;;;;;5091772;28;20660;-59
2021/05/07 11:03:00;;;;;;;3.43;2.80;;;;;;;;;;5092035;28;20231;-59
2021/05/07 11:05:37;;;;;;;4.10;3.23;;;;;;;;;;5092167;28;20204;-60
2021/05/07 11:08:04;;;;;;;5.87;3.70;;;;;;;;;;5092134;28;20247;-59
2021/05/07 11:10:30;;;;;;;3.37;3.07;;;;;;;;;;5091681;28;20228;-59
2021/05/07 11:12:57;;;;;;;13.63;8.23;;;;;;;;;;5091955;28;20281;-60
2021/05/07 11:15:25;;;;;;;5.63;3.63;;;;;;;;;;5092408;28;20200;-59
2021/05/07 11:18:01;;;;;;;3.53;3.00;;;;;;;;;;5091913;28;20212;-60
2021/05/07 11:20:32;;;;;;;4.50;3.13;;;;;;;;;;5091900;28;20204;-60
2021/05/07 11:22:59;;;;;;;4.13;3.17;;;;;;;;;;5092167;28;20312;-60
2021/05/07 11:25:25;;;;;;;4.33;3.10;;;;;;;;;;5092027;28;20215;-59
2021/05/07 11:27:52;;;;;;;3.73;3.33;;;;;;;;;;5091974;28;20273;-59
2021/05/07 11:30:19;;;;;;;3.40;2.70;;;;;;;;;;5093998;28;20627;-60
2021/05/07 11:32:46;;;;;;;5.37;3.43;;;;;;;;;;5095789;28;20224;-59
2021/05/07 11:35:13;;;;;;;3.83;3.20;;;;;;;;;;5095972;28;20611;-60
2021/05/07 11:37:42;;;;;;;4.53;3.30;;;;;;;;;;5095925;28;20205;-60
2021/05/07 11:40:09;;;;;;;5.73;2.90;;;;;;;;;;5095544;28;20590;-60
2021/05/07 11:42:36;;;;;;;5.23;2.80;;;;;;;;;;5095653;28;20586;-59
2021/05/07 11:45:06;;;;;;;3.83;2.57;;;;;;;;;;5095594;28;20669;-60
2021/05/07 11:47:33;;;;;;;3.67;2.97;;;;;;;;;;5095878;28;20579;-59
2021/05/07 11:50:01;;;;;;;4.27;3.10;;;;;;;;;;5095166;28;20323;-60
2021/05/07 11:52:34;;;;;;;5.17;2.93;;;;;;;;;;5095522;28;20230;-59
2021/05/07 11:55:01;;;;;;;4.43;3.17;;;;;;;;;;5095416;28;20231;-59
2021/05/07 11:57:30;;;;;;;4.70;3.47;;;;;;;;;;5095683;28;20219;-59
2021/05/07 11:59:56;;;;;;;3.90;3.00;;;;;;;;;;5095322;28;20204;-60
2021/05/07 12:02:24;;;;;;;5.03;3.70;;;;;;;;;;5095524;28;20225;-59
2021/05/07 12:04:50;;;;;;;5.30;3.10;;;;;;;;;;5095370;28;20625;-60
2021/05/07 12:07:25;;;;;;;4.40;3.10;;;;;;;;;;5095436;28;20235;-59
2021/05/07 12:09:52;;;;;;;3.93;3.30;;;;;;;;;;5094737;28;20760;-58
2021/05/07 12:12:19;;;;;;;4.87;3.23;;;;;;;;;;5094967;28;20577;-60
2021/05/07 12:14:49;;;;;;;4.20;3.30;;;;;;;;;;5095542;28;20628;-59
2021/05/07 12:17:16;;;;;;;5.77;3.33;;;;;;;;;;5095301;28;20608;-59
2021/05/07 12:19:43;;;;;;;4.43;3.47;;;;;;;;;;5094642;28;20204;-56
2021/05/07 12:22:20;;;;;;;3.57;3.00;;;;;;;;;;5094880;28;20210;-60
2021/05/07 12:24:47;;;;;;;4.17;2.90;;;;;;;;;;5094968;28;20212;-58
2021/05/07 12:27:14;;;;;;;4.77;3.00;;;;;;;;;;5095118;28;20214;-60
2021/05/07 12:29:40;;;;;;;4.53;2.77;;;;;;;;;;5094622;28;20230;-58
2021/05/07 12:32:08;;;;;;;3.60;2.50;;;;;;;;;;5094893;28;20216;-60
2021/05/07 12:34:34;;;;;;;2.67;2.23;;;;;;;;;;5094866;28;20210;-60
2021/05/07 12:37:03;;;;;;;2.93;2.00;;;;;;;;;;5094753;28;20234;-60
2021/05/07 12:39:30;;;;;;;2.43;2.23;;;;;;;;;;5094590;28;20260;-60
2021/05/07 12:41:58;;;;;;;6.80;2.60;;;;;;;;;;5093106;28;20235;-60
2021/05/07 12:44:24;;;;;;;2.87;2.40;;;;;;;;;;5094536;28;20714;-60
2021/05/07 12:46:51;;;;;;;3.03;2.00;;;;;;;;;;5094643;28;20208;-60
2021/05/07 12:49:18;;;;;;;4.17;2.77;;;;;;;;;;5094582;28;20208;-60
2021/05/07 12:51:45;;;;;;;3.20;2.03;;;;;;;;;;5093915;28;20269;-61
2021/05/07 12:54:11;;;;;;;2.33;2.03;;;;;;;;;;5094628;28;20336;-61
2021/05/07 12:56:41;;;;;;;21.90;13.87;;;;;;;;;;5094633;28;20318;-60
2021/05/07 12:59:08;;;;;;;4.07;2.43;;;;;;;;;;5082455;28;20197;-61
2021/05/07 13:01:35;;;;;;;2.80;2.40;;;;;;;;;;5073372;28;20201;-57
2021/05/07 13:04:01;;;;;;;3.23;2.20;;;;;;;;;;5073449;28;20228;-62
2021/05/07 13:06:30;;;;;;;3.20;2.30;;;;;;;;;;5073590;28;20367;-63
2021/05/07 13:08:56;;;;;;;3.60;2.50;;;;;;;;;;5090042;28;20296;-63
2021/05/07 13:11:23;;;;;;;2.77;2.50;;;;;;;;;;5093556;28;20236;-63
2021/05/07 13:13:49;;;;;;;3.30;3.00;;;;;;;;;;5093636;28;20238;-65
2021/05/07 13:16:17;;;;;;;6.30;3.17;;;;;;;;;;5093862;28;20209;-64
2021/05/07 13:18:43;;;;;;;3.33;3.03;;;;;;;;;;5093515;28;20204;-65
2021/05/07 13:21:10;;;;;;;4.33;3.33;;;;;;;;;;5093442;28;20212;-64
2021/05/07 13:23:36;;;;;;;4.80;3.77;;;;;;;;;;5093635;28;20228;-62
2021/05/07 13:26:03;;;;;;;5.30;3.13;;;;;;;;;;5094017;28;20266;-62
2021/05/07 13:28:29;;;;;;;3.80;3.10;;;;;;;;;;5093259;28;20619;-63
2021/05/07 13:30:56;;;;;;;5.03;3.13;;;;;;;;;;5092893;28;20228;-62
2021/05/07 13:33:26;;;;;;;5.13;2.90;;;;;;;;;;5093223;28;20277;-62
2021/05/07 13:35:53;;;;;;;4.77;2.90;;;;;;;;;;5093890;28;20208;-63
2021/05/07 13:38:20;;;;;;;4.00;3.20;;;;;;;;;;5093550;28;20274;-61
2021/05/07 13:40:49;;;;;;;4.00;3.10;;;;;;;;;;5092982;28;20199;-62
2021/05/07 13:43:15;;;;;;;4.57;3.40;;;;;;;;;;5093620;28;20235;-63
2021/05/07 13:45:42;;;;;;;4.03;3.60;;;;;;;;;;5092902;28;20217;-64
2021/05/07 13:48:09;;;;;;;4.07;3.67;;;;;;;;;;5092487;28;20208;-65
2021/05/07 13:50:36;;;;;;;7.80;4.03;;;;;;;;;;5091336;28;20277;-64
2021/05/07 13:53:03;;;;;;;5.33;3.97;;;;;;;;;;5092017;28;20231;-64
2021/05/07 13:55:29;;;;;;;6.50;4.47;;;;;;;;;;5092872;28;20207;-64
2021/05/07 13:57:56;;;;;;;5.33;3.77;;;;;;;;;;5091867;28;20254;-64
2021/05/07 14:00:23;;;;;;;5.43;4.13;;;;;;;;;;5091935;28;20205;-64
2021/05/07 14:05:43;;;;;;;7.30;4.63;;;;;;;;;;5091730;28;20221;-67
2021/05/07 14:08:09;;;;;;;6.57;4.93;;;;;;;;;;5092659;28;20204;-67
2021/05/07 14:10:36;;;;;;;6.07;4.50;;;;;;;;;;5091719;28;20230;-67
2021/05/07 14:13:02;;;;;;;6.13;4.30;;;;;;;;;;5092147;28;20222;-69
2021/05/07 14:15:29;;;;;;;8.93;4.73;;;;;;;;;;5092698;28;20596;-67
2021/05/07 14:17:56;;;;;;;5.93;4.70;;;;;;;;;;5092272;28;20209;-67
2021/05/07 14:20:22;;;;;;;7.27;5.20;;;;;;;;;;5092301;28;20214;-68
2021/05/07 14:22:50;;;;;;;7.50;4.57;;;;;;;;;;5091697;28;20232;-64
2021/05/07 14:25:17;;;;;;;5.83;4.20;;;;;;;;;;5092344;28;20221;-61
2021/05/07 14:27:43;;;;;;;5.60;4.27;;;;;;;;;;5090747;28;20203;-61
2021/05/07 14:30:12;;;;;;;6.30;4.83;;;;;;;;;;5091917;28;20254;-61
2021/05/07 14:32:39;;;;;;;5.80;4.87;;;;;;;;;;5092060;28;20223;-60